createdAt,value
2023-04-16T00:02:07.892Z,22.95
2023-04-16T00:04:34.719Z,25.17
2023-04-16T00:07:01.383Z,26.38
2023-04-16T00:09:28.067Z,27.90
2023-04-16T00:11:54.749Z,17.20
2023-04-16T00:14:21.379Z,20.20
2023-04-16T00:16:48.048Z,22.88
2023-04-16T00:19:14.749Z,19.65
2023-04-16T00:21:41.378Z,17.65
2023-04-16T00:24:08.137Z,14.77
2023-04-16T00:26:34.776Z,21.65
2023-04-16T00:29:01.643Z,21.67
2023-04-16T00:31:29.677Z,15.77
2023-04-16T00:33:57.060Z,17.17
2023-04-16T00:36:24.972Z,24.13
2023-04-16T00:38:51.821Z,20.65
2023-04-16T00:41:18.531Z,18.17
2023-04-16T00:43:45.651Z,15.48
2023-04-16T00:46:12.879Z,22.98
2023-04-16T00:48:41.633Z,18.08
2023-04-16T00:51:09.172Z,15.70
2023-04-16T00:53:36.555Z,17.60
2023-04-16T00:56:05.121Z,15.52
2023-04-16T00:58:32.824Z,14.55
2023-04-16T01:00:59.857Z,16.98
2023-04-16T01:03:39.666Z,15.80
2023-04-16T01:06:07.647Z,17.25
2023-04-16T01:08:34.447Z,12.70
2023-04-16T01:11:01.448Z,19.98
2023-04-16T01:13:28.128Z,15.10
2023-04-16T01:15:55.038Z,16.45
2023-04-16T01:18:22.828Z,21.63
2023-04-16T01:20:50.427Z,15.07
2023-04-16T01:23:20.699Z,16.48
2023-04-16T01:25:47.692Z,17.67
2023-04-16T01:28:14.618Z,14.18
2023-04-16T01:30:41.649Z,19.77
2023-04-16T01:33:11.255Z,16.63
2023-04-16T01:35:38.745Z,22.65
2023-04-16T01:38:06.968Z,20.05
2023-04-16T01:40:34.432Z,16.70
2023-04-16T01:43:01.456Z,18.52
2023-04-16T01:45:28.097Z,17.50
2023-04-16T01:47:54.835Z,17.15
2023-04-16T01:50:22.316Z,18.42
2023-04-16T01:52:48.944Z,20.23
2023-04-16T01:55:15.876Z,18.85
2023-04-16T01:57:42.558Z,19.92
2023-04-16T02:00:09.520Z,19.02
2023-04-16T02:02:36.787Z,20.45
2023-04-16T02:05:03.706Z,16.85
2023-04-16T02:07:31.742Z,22.35
2023-04-16T02:09:58.369Z,15.48
2023-04-16T02:12:25.461Z,18.33
2023-04-16T02:14:52.077Z,16.73
2023-04-16T02:17:18.792Z,15.93
2023-04-16T02:19:45.440Z,15.40
2023-04-16T02:22:12.084Z,13.73
2023-04-16T02:24:38.658Z,13.70
2023-04-16T02:27:05.348Z,17.30
2023-04-16T02:34:26.494Z,16.10
2023-04-16T02:36:54.303Z,13.50
2023-04-16T02:39:21.053Z,16.30
2023-04-16T02:41:47.727Z,11.70
2023-04-16T02:44:14.337Z,14.43
2023-04-16T02:46:41.155Z,17.33
2023-04-16T02:49:07.963Z,12.25
2023-04-16T02:51:34.741Z,24.02
2023-04-16T02:54:03.100Z,18.55
2023-04-16T02:56:29.714Z,18.92
2023-04-16T02:58:56.510Z,18.48
2023-04-16T03:01:23.235Z,16.20
2023-04-16T03:03:49.979Z,13.90
2023-04-16T03:06:16.865Z,17.55
2023-04-16T03:08:43.445Z,13.40
2023-04-16T03:11:10.104Z,16.63
2023-04-16T03:13:36.712Z,12.73
2023-04-16T03:16:03.646Z,15.27
2023-04-16T03:18:30.501Z,17.52
2023-04-16T03:20:57.115Z,12.35
2023-04-16T04:22:21.226Z,15.40
2023-04-16T04:24:47.836Z,10.73
2023-04-16T04:27:14.482Z,10.88
2023-04-16T04:29:41.177Z,11.43
2023-04-16T04:32:07.950Z,11.23
2023-04-16T04:34:34.735Z,13.82
2023-04-16T04:37:01.562Z,9.32
2023-04-16T04:39:28.187Z,11.90
2023-04-16T04:41:54.858Z,12.43
2023-04-16T04:44:21.424Z,15.35
2023-04-16T04:46:48.083Z,14.70
2023-04-16T04:59:01.093Z,15.15
2023-04-16T05:01:27.703Z,15.35
2023-04-16T05:03:54.435Z,13.48
2023-04-16T05:06:21.384Z,14.30
2023-04-16T05:08:47.982Z,12.48
2023-04-16T05:11:14.649Z,13.43
2023-04-16T05:13:41.408Z,14.40
2023-04-16T05:16:08.028Z,17.25
2023-04-16T05:18:34.676Z,15.75
2023-04-16T05:21:01.270Z,25.77
2023-04-16T05:23:28.181Z,15.43
2023-04-16T05:25:54.838Z,15.80
2023-04-16T05:28:21.588Z,19.10
2023-04-16T05:43:01.334Z,13.02
2023-04-16T05:45:28.279Z,14.80
2023-04-16T05:47:55.126Z,13.25
2023-04-16T05:50:21.780Z,11.02
2023-04-16T05:52:48.552Z,12.50
2023-04-16T05:55:15.164Z,11.73
2023-04-16T05:57:41.800Z,13.20
2023-04-16T06:00:08.866Z,13.85
2023-04-16T06:02:36.003Z,13.10
2023-04-16T06:05:02.799Z,13.65
2023-04-16T06:07:29.506Z,12.15
2023-04-16T06:09:56.080Z,11.70
2023-04-16T06:12:22.747Z,12.98
2023-04-16T06:14:49.504Z,16.17
2023-04-16T06:17:16.724Z,13.52
2023-04-16T06:19:43.374Z,9.55
2023-04-16T06:22:10.220Z,10.38
2023-04-16T06:24:36.901Z,14.65
2023-04-16T06:27:03.557Z,15.02
2023-04-16T06:29:40.572Z,11.88
2023-04-16T06:32:08.395Z,11.27
2023-04-16T06:34:35.341Z,12.13
2023-04-16T06:37:02.004Z,12.20
2023-04-16T06:39:28.649Z,10.57
2023-04-16T06:41:56.355Z,10.18
2023-04-16T06:44:23.314Z,10.88
2023-04-16T06:46:51.253Z,13.70
2023-04-16T06:54:11.144Z,10.75
2023-04-16T06:56:37.918Z,9.90
2023-04-16T06:59:04.930Z,9.25
2023-04-16T07:01:31.822Z,11.27
2023-04-16T08:59:53.674Z,12.65
2023-04-16T09:02:20.919Z,4.97
2023-04-16T09:04:50.001Z,9.27
2023-04-16T09:07:18.222Z,6.45
2023-04-16T09:09:46.498Z,2.47
2023-04-16T09:12:13.222Z,3.90
2023-04-16T09:14:41.944Z,5.60
2023-04-16T09:17:11.218Z,4.53
2023-04-16T09:19:37.885Z,2.72
2023-04-16T09:22:04.564Z,11.65
2023-04-16T09:24:31.837Z,4.75
2023-04-16T09:26:59.980Z,6.72
2023-04-16T09:29:40.136Z,4.40
2023-04-16T09:32:11.689Z,10.63
2023-04-16T09:34:59.124Z,4.47
2023-04-16T09:37:30.031Z,6.57
2023-04-16T09:40:05.091Z,3.97
2023-04-16T09:42:35.089Z,4.72
2023-04-16T09:57:39.161Z,7.80
2023-04-16T10:00:09.155Z,4.90
2023-04-16T10:02:39.324Z,4.93
2023-04-16T10:05:06.534Z,2.92
2023-04-16T10:07:37.663Z,9.70
2023-04-16T10:29:46.973Z,5.97
2023-04-16T10:32:14.411Z,6.28
2023-04-16T10:34:41.428Z,5.00
2023-04-16T10:42:12.495Z,5.78
2023-04-16T10:44:45.024Z,5.90
2023-04-16T10:47:14.036Z,10.07
2023-04-16T10:49:41.717Z,7.45
2023-04-16T10:52:19.029Z,6.30
2023-04-16T10:54:47.877Z,10.55
2023-04-16T10:57:19.755Z,15.27
2023-04-16T10:59:49.169Z,13.02
2023-04-16T11:02:20.472Z,30.65
2023-04-16T11:04:49.321Z,9.15
2023-04-16T11:07:20.594Z,12.57
2023-04-16T11:09:51.346Z,10.23
2023-04-16T11:12:22.413Z,10.65
2023-04-16T11:14:54.481Z,10.50
2023-04-16T11:17:22.069Z,8.07
2023-04-16T11:19:49.331Z,6.18
2023-04-16T11:22:17.796Z,13.55
2023-04-16T11:24:47.709Z,12.55
2023-04-16T11:27:16.139Z,8.93
2023-04-16T11:29:44.563Z,8.55
2023-04-16T11:32:21.647Z,5.75
2023-04-16T11:34:48.472Z,5.28
2023-04-16T11:37:15.122Z,4.20
2023-04-16T11:39:52.328Z,9.25
2023-04-16T11:42:21.381Z,5.53
2023-04-16T11:44:52.372Z,16.48
2023-04-16T11:47:19.286Z,6.45
2023-04-16T11:49:45.945Z,6.25
2023-04-16T11:52:12.699Z,7.32
2023-04-16T11:54:39.311Z,3.10
2023-04-16T11:57:06.260Z,5.57
2023-04-16T11:59:33.474Z,6.10
2023-04-16T12:02:00.268Z,4.70
2023-04-16T12:04:27.565Z,6.28
2023-04-16T12:07:13.517Z,5.05
2023-04-16T12:09:42.368Z,5.80
2023-04-16T12:12:30.841Z,4.93
2023-04-16T12:15:00.269Z,5.47
2023-04-16T12:17:26.955Z,9.98
2023-04-16T12:19:59.076Z,4.57
2023-04-16T12:22:37.217Z,5.63
2023-04-16T12:25:06.195Z,3.13
2023-04-16T12:27:53.344Z,6.68
2023-04-16T12:30:22.928Z,10.63
2023-04-16T12:33:12.913Z,12.60
2023-04-16T12:35:41.955Z,4.18
2023-04-16T12:38:08.508Z,6.80
2023-04-16T12:40:36.215Z,5.45
2023-04-16T12:43:02.964Z,8.95
2023-04-16T12:45:29.771Z,6.22
2023-04-16T12:47:57.565Z,19.30
2023-04-16T12:50:24.464Z,8.00
2023-04-16T12:52:51.248Z,6.93
2023-04-16T12:57:44.806Z,8.50
2023-04-16T13:00:12.716Z,7.00
2023-04-16T13:02:40.167Z,12.05
2023-04-16T13:05:08.258Z,9.52
2023-04-16T13:07:35.315Z,8.02
2023-04-16T13:10:02.224Z,5.28
2023-04-16T13:12:29.017Z,5.13
2023-04-16T13:14:56.099Z,6.78
2023-04-16T13:17:22.794Z,8.55
2023-04-16T13:19:49.470Z,10.32
2023-04-16T13:22:16.144Z,7.50
2023-04-16T13:24:42.792Z,10.82
2023-04-16T13:27:09.540Z,11.30
2023-04-16T13:29:36.820Z,21.05
2023-04-16T13:32:04.125Z,5.72
2023-04-16T13:34:32.628Z,11.32
2023-04-16T13:36:59.373Z,6.75
2023-04-16T13:39:26.209Z,11.10
2023-04-16T13:41:52.853Z,6.00
2023-04-16T13:44:19.564Z,6.05
2023-04-16T13:46:47.917Z,9.60
2023-04-16T13:49:15.134Z,6.57
2023-04-16T13:51:45.001Z,7.15
2023-04-16T13:54:11.756Z,4.55
2023-04-16T13:56:38.700Z,2.13
2023-04-16T13:59:05.409Z,4.45
2023-04-16T14:01:32.110Z,4.28
2023-04-16T14:04:00.377Z,3.15
2023-04-16T14:06:27.181Z,5.63
2023-04-16T14:08:56.018Z,12.30
2023-04-16T14:11:23.630Z,14.40
2023-04-16T14:13:50.431Z,9.50
2023-04-16T14:16:17.055Z,3.28
2023-04-16T14:18:43.680Z,7.93
2023-04-16T14:21:10.349Z,2.53
2023-04-16T14:23:37.066Z,1.48
2023-04-16T14:26:03.898Z,6.75
2023-04-16T14:28:30.591Z,1.48
2023-04-16T14:30:57.255Z,6.65
2023-04-16T14:33:24.778Z,4.38
2023-04-16T14:35:52.024Z,7.07
2023-04-16T14:38:21.468Z,2.95
2023-04-16T14:40:48.922Z,1.88
2023-04-16T14:43:15.880Z,2.05
2023-04-16T14:45:42.570Z,3.10
2023-04-16T14:48:09.287Z,3.17
2023-04-16T14:50:37.960Z,3.10
2023-04-16T14:53:07.822Z,4.68
2023-04-16T14:55:34.667Z,4.15
2023-04-16T14:58:01.359Z,3.55
2023-04-16T15:00:28.216Z,1.25
2023-04-16T15:02:55.643Z,5.95
2023-04-16T15:05:22.611Z,4.05
2023-04-16T15:07:49.309Z,1.58
2023-04-16T15:10:16.028Z,5.18
2023-04-16T15:12:42.714Z,3.53
2023-04-16T15:15:09.872Z,2.28
2023-04-16T15:17:36.704Z,4.13
2023-04-16T15:20:08.204Z,7.53
2023-04-16T15:22:35.137Z,6.60
2023-04-16T15:25:01.870Z,4.43
2023-04-16T15:27:28.660Z,2.05
2023-04-16T15:29:55.455Z,5.28
2023-04-16T15:32:22.239Z,5.00
2023-04-16T15:34:49.011Z,9.45
2023-04-16T15:37:16.187Z,16.20
2023-04-16T15:39:43.248Z,15.55
2023-04-16T15:42:13.237Z,6.80
2023-04-16T15:44:40.622Z,5.35
2023-04-16T15:47:08.636Z,8.80
2023-04-16T15:49:36.045Z,5.40
2023-04-16T15:52:02.822Z,7.40
2023-04-16T15:54:31.025Z,8.95
2023-04-16T15:56:59.145Z,14.95
2023-04-16T15:59:26.821Z,5.70
2023-04-16T16:02:01.698Z,7.22
2023-04-16T16:04:35.148Z,5.93
2023-04-16T16:07:07.524Z,6.07
2023-04-16T16:09:40.253Z,6.88
2023-04-16T16:12:12.769Z,4.95
2023-04-16T16:14:44.283Z,6.22
2023-04-16T16:17:11.108Z,6.68
2023-04-16T16:19:37.727Z,4.65
2023-04-16T16:22:04.584Z,6.72
2023-04-16T16:24:34.035Z,3.75
2023-04-16T16:27:01.664Z,4.35
2023-04-16T16:29:28.344Z,16.35
2023-04-16T16:32:00.119Z,18.30
2023-04-16T16:34:34.806Z,3.90
2023-04-16T16:37:01.434Z,7.10
2023-04-16T16:39:28.078Z,8.98
2023-04-16T16:44:50.963Z,6.70
2023-04-16T16:47:17.711Z,5.13
2023-04-16T16:49:44.806Z,8.38
2023-04-16T16:52:11.570Z,4.45
2023-04-16T16:54:38.140Z,5.93
2023-04-16T16:57:04.723Z,12.00
2023-04-16T16:59:31.695Z,6.68
2023-04-16T17:01:58.523Z,5.22
2023-04-16T17:04:25.483Z,4.05
2023-04-16T17:06:52.402Z,4.70
2023-04-16T17:09:19.122Z,8.13
2023-04-16T17:11:45.788Z,5.40
2023-04-16T17:14:12.474Z,8.27
2023-04-16T17:16:41.182Z,7.75
2023-04-16T17:19:07.969Z,5.95
2023-04-16T17:21:34.651Z,12.77
2023-04-16T17:24:04.222Z,11.73
2023-04-16T17:26:31.948Z,14.15
2023-04-16T17:28:59.410Z,13.38
2023-04-16T17:31:27.358Z,7.72
2023-04-16T17:33:54.084Z,20.73
2023-04-16T17:36:23.858Z,10.23
2023-04-16T17:38:50.777Z,6.55
2023-04-16T17:41:21.441Z,6.60
2023-04-16T17:43:51.216Z,8.32
2023-04-16T17:46:18.261Z,8.60
2023-04-16T17:48:45.040Z,6.97
2023-04-16T17:51:20.082Z,8.02
2023-04-16T17:53:47.445Z,11.95
2023-04-16T17:56:16.673Z,9.48
2023-04-16T17:58:43.446Z,8.80
2023-04-16T18:01:11.202Z,5.45
2023-04-16T18:03:39.463Z,6.28
2023-04-16T18:06:06.217Z,8.73
2023-04-16T18:08:33.855Z,7.00
2023-04-16T18:11:00.479Z,6.88
2023-04-16T18:13:27.264Z,10.13
2023-04-16T18:15:55.309Z,5.05
2023-04-16T18:18:22.016Z,4.95
2023-04-16T18:20:48.771Z,5.05
2023-04-16T18:23:15.421Z,6.85
2023-04-16T18:25:42.221Z,6.75
2023-04-16T18:28:09.551Z,7.75
2023-04-16T18:30:40.044Z,10.02
2023-04-16T18:33:38.488Z,6.18
2023-04-16T18:35:53.729Z,7.30
2023-04-16T18:38:20.365Z,7.03
2023-04-16T18:40:47.561Z,9.32
2023-04-16T18:43:14.208Z,6.25
2023-04-16T18:45:41.774Z,6.00
2023-04-16T18:48:08.406Z,7.72
2023-04-16T18:50:35.428Z,9.77
2023-04-16T18:53:02.368Z,8.43
2023-04-16T18:55:30.301Z,8.95
2023-04-16T18:57:57.081Z,8.20
2023-04-16T19:00:23.694Z,12.52
2023-04-16T19:02:50.448Z,6.22
2023-04-16T19:05:17.305Z,10.60
2023-04-16T19:07:43.949Z,5.35
2023-04-16T19:10:10.715Z,6.25
2023-04-16T19:12:37.385Z,9.45
2023-04-16T19:15:05.141Z,6.32
2023-04-16T19:17:31.907Z,8.40
2023-04-16T19:19:58.601Z,9.02
2023-04-16T19:22:25.239Z,10.98
2023-04-16T19:24:51.856Z,17.23
2023-04-16T19:27:18.434Z,10.32
2023-04-16T19:29:46.717Z,8.63
2023-04-16T19:32:14.274Z,11.55
2023-04-16T19:34:41.026Z,11.43
2023-04-16T19:37:07.865Z,9.50
2023-04-16T19:39:34.527Z,11.23
2023-04-16T19:42:01.867Z,11.15
2023-04-16T19:44:28.526Z,10.88
2023-04-16T19:46:55.496Z,11.32
2023-04-16T19:49:22.168Z,9.15
2023-04-16T19:51:48.788Z,10.95
2023-04-16T19:54:15.690Z,7.22
2023-04-16T19:56:42.301Z,9.30
2023-04-16T19:59:09.459Z,9.68
2023-04-16T20:01:36.402Z,16.52
2023-04-16T20:04:03.094Z,11.38
2023-04-16T20:06:29.759Z,12.35
2023-04-16T20:08:57.431Z,14.80
2023-04-16T20:11:24.103Z,13.15
2023-04-16T20:13:50.783Z,14.43
2023-04-16T20:16:17.588Z,13.43
2023-04-16T20:18:46.193Z,11.73
2023-04-16T20:21:12.857Z,10.38
2023-04-16T20:23:39.499Z,13.48
2023-04-16T20:26:06.341Z,11.27
2023-04-16T20:28:32.914Z,13.40
2023-04-16T20:30:59.503Z,23.33
2023-04-16T20:33:26.155Z,13.98
2023-04-16T20:35:52.802Z,17.67
2023-04-16T20:38:23.765Z,18.70
2023-04-16T20:41:06.254Z,15.32
2023-04-16T20:43:38.643Z,13.43
2023-04-16T20:46:06.190Z,10.48
2023-04-16T20:48:33.269Z,11.65
2023-04-16T20:51:03.965Z,11.35
2023-04-16T20:53:32.516Z,11.35
2023-04-16T20:56:02.523Z,12.25
2023-04-16T20:58:29.828Z,13.77
2023-04-16T21:00:57.881Z,14.20
2023-04-16T21:03:25.295Z,13.82
2023-04-16T21:05:53.872Z,16.65
2023-04-16T21:08:21.386Z,15.30
2023-04-16T21:10:48.651Z,13.80
2023-04-16T21:13:15.398Z,12.10
2023-04-16T21:15:43.742Z,13.68
2023-04-16T21:18:11.302Z,14.52
2023-04-16T21:20:39.209Z,17.80
2023-04-16T21:23:06.483Z,14.65
2023-04-16T21:25:33.644Z,12.75
2023-04-16T21:28:00.656Z,14.68
2023-04-16T21:30:27.346Z,13.57
2023-04-16T21:32:54.118Z,15.60
2023-04-16T21:35:20.975Z,14.35
2023-04-16T21:37:47.607Z,16.73
2023-04-16T21:40:14.428Z,14.32
2023-04-16T21:42:42.458Z,13.10
2023-04-16T21:45:10.515Z,12.98
2023-04-16T21:47:37.866Z,14.27
2023-04-16T21:50:04.927Z,12.60
2023-04-16T21:52:32.943Z,12.63
2023-04-16T21:55:00.477Z,12.77
2023-04-16T21:57:27.237Z,10.98
2023-04-16T21:59:53.871Z,13.57
2023-04-16T22:02:20.555Z,13.48
2023-04-16T22:04:47.440Z,15.30
2023-04-16T22:07:16.854Z,14.27
2023-04-16T22:09:43.817Z,11.75
2023-04-16T22:12:10.540Z,17.13
2023-04-16T22:14:42.149Z,13.65
2023-04-16T22:17:13.013Z,14.18
2023-04-16T22:19:39.722Z,13.48
2023-04-16T22:22:06.342Z,13.07
2023-04-16T22:24:33.056Z,15.93
2023-04-16T22:26:59.692Z,14.65
2023-04-16T22:29:26.419Z,12.80
2023-04-16T22:31:53.218Z,12.32
2023-04-16T22:34:19.923Z,11.85
2023-04-16T22:36:47.578Z,14.18
2023-04-16T22:39:14.621Z,12.60
2023-04-16T22:41:41.628Z,14.00
2023-04-16T22:44:08.259Z,14.82
2023-04-16T22:46:35.174Z,14.63
2023-04-16T22:49:02.714Z,14.30
2023-04-16T22:51:30.189Z,15.15
2023-04-16T22:53:58.998Z,15.40
2023-04-16T22:56:28.954Z,12.25
2023-04-16T22:58:55.669Z,12.48
2023-04-16T23:01:22.733Z,14.23
2023-04-16T23:03:49.483Z,13.68
2023-04-16T23:06:16.358Z,13.68
2023-04-16T23:08:42.978Z,14.77
2023-04-16T23:11:09.710Z,13.13
2023-04-16T23:13:36.369Z,11.98
2023-04-16T23:16:03.025Z,14.85
2023-04-16T23:18:29.716Z,12.20
2023-04-16T23:20:56.467Z,12.18
2023-04-16T23:23:23.096Z,12.90
2023-04-16T23:25:53.227Z,12.52
2023-04-16T23:28:20.090Z,14.65
2023-04-16T23:30:46.666Z,12.23
2023-04-16T23:33:13.380Z,10.90
2023-04-16T23:35:39.981Z,12.60
2023-04-16T23:38:06.589Z,13.98
2023-04-16T23:40:33.186Z,12.93
2023-04-16T23:42:59.805Z,14.25
2023-04-16T23:45:26.421Z,14.35
2023-04-16T23:47:53.165Z,14.63
2023-04-16T23:50:19.887Z,14.60
2023-04-16T23:52:46.514Z,17.30
2023-04-16T23:55:13.168Z,15.98
2023-04-16T23:57:39.815Z,15.45
